APL New Jersey — A8NM6 — position and weather

sailwx.info

Track history (hours):
 
Tides and Currents Weather Stations Pressure Air Temp Water Temp Dewpoint Dewpoint Depression Visibility Wind Speed Wind Dir Waves Ship Positions

APL New Jersey

Last reported at 2017-May-18 16:16 UTC. Time now 2017-May-26 03:42 UTC.
Position N 30°28' E 122°43'.

Length 293 m; draft 10.2 m.

Type: Cargo ship. MMSI: 636013522.

Date/timePositionNaut miles runAvg speedWind from/ knotsBaromVisibWave heightAir tempDewpointWater temp
2017-May-18 16:16N 30°28' E 122°43'3 9.6
2017-May-18 15:58N 30°29' E 122°39'511.0
2017-May-18 15:30N 30°31' E 122°34'610.1
2017-May-18 14:57N 30°32' E 122°28'9 9.9
2017-May-18 14:00N 30°33' E 122°17'511.0
2017-May-18 13:30N 30°34' E 122°10'610.2
2017-May-18 12:56N 30°36' E 122°05'0 0.7
2017-May-18 12:30N 30°37' E 122°05'0 0.0
2017-May-18 11:54N 30°37' E 122°05'0 0.0
2017-May-18 11:18N 30°37' E 122°05'0 0.0
2017-May-18 10:57N 30°37' E 122°05'0 0.0
2017-May-18 10:30N 30°37' E 122°05'0 0.0
2017-May-18 09:54N 30°37' E 122°05'0 0.0
2017-May-18 09:12N 30°37' E 122°05'0 0.0
2017-May-18 09:00N 30°37' E 122°05'0 0.0
2017-May-18 08:27N 30°37' E 122°05'0 0.0
2017-May-18 08:00N 30°37' E 122°05'0 0.0
2017-May-18 07:24N 30°37' E 122°05'0 0.0
2017-May-18 01:18N 30°37' E 122°05'4 4.6
2017-May-18 00:24N 30°35' E 122°09'410.7
2017-May-17 23:59N 30°34' E 122°14'510.0
2017-May-17 23:27N 30°33' E 122°20'2 3.6
2017-May-17 23:00N 30°33' E 122°22'2 4.4
2017-May-17 22:30N 30°32' E 122°24'3 4.9
2017-May-17 21:59N 30°32' E 122°27'4 9.0
2017-May-17 21:30N 30°32' E 122°32'810.3
2017-May-17 20:43N 30°34' E 122°41'3 7.8
2017-May-17 20:20N 30°36' E 122°44'1 0.1
2017-May-17 14:40N 30°36' E 122°44'0 0.1
2017-May-17 13:13N 30°36' E 122°44'0 0.0
2017-May-16 12:40N 30°36' E 122°44'0 0.0
2017-May-16 01:55N 30°36' E 122°44'0 0.0
2017-May-16 01:25N 30°36' E 122°44'0 0.1
2017-May-16 00:58N 30°36' E 122°44'0 0.3
2017-May-16 00:28N 30°36' E 122°44'0 0.1
2017-May-15 23:04N 30°36' E 122°44'0 0.2
2017-May-15 22:43N 30°36' E 122°44'0 0.0
2017-May-15 22:28N 30°36' E 122°44'0 0.0
2017-May-15 21:46N 30°36' E 122°44'0 0.1
2017-May-15 21:28N 30°36' E 122°44'0 0.0
2017-May-15 20:43N 30°36' E 122°44'0 0.1
2017-May-15 20:19N 30°36' E 122°44'0 0.1
2017-May-15 17:22N 30°36' E 122°44'0 0.0
2017-May-15 14:52N 30°36' E 122°44'0 0.0
2017-May-15 13:37N 30°36' E 122°44'0 0.1
2017-May-15 13:28N 30°36' E 122°44'0 0.1
2017-May-15 12:19N 30°36' E 122°44'0 0.2
2017-May-15 11:55N 30°36' E 122°44'0 0.2
2017-May-15 11:28N 30°36' E 122°44'0 0.1
2017-May-15 10:55N 30°36' E 122°44'0 0.0
2017-May-15 10:28N 30°36' E 122°44'0 0.1
2017-May-15 09:34N 30°36' E 122°44'0 0.1
2017-May-15 09:28N 30°36' E 122°44'0 0.0
2017-May-14 11:16N 30°36' E 122°44'0 0.0
2017-May-13 21:37N 30°36' E 122°44'0 0.2
2017-May-13 21:16N 30°36' E 122°44'0 0.0
2017-May-13 20:43N 30°36' E 122°44'0 0.0
2017-May-13 20:22N 30°36' E 122°44'0 0.1
2017-May-13 19:49N 30°36' E 122°44'0 0.1
2017-May-13 18:49N 30°36' E 122°44'0 0.0
2017-May-13 15:25N 30°36' E 122°44'0 0.0
2017-May-13 14:55N 30°36' E 122°44'0 0.1
2017-May-13 14:28N 30°36' E 122°44'0 0.0
2017-May-13 12:31N 30°36' E 122°44'0 0.0
2017-May-13 12:10N 30°36' E 122°44'0 0.1
2017-May-13 11:07N 30°36' E 122°44'0 0.1
2017-May-13 10:58N 30°36' E 122°44'0 0.1
2017-May-13 10:07N 30°36' E 122°44'0 0.4
2017-May-13 09:58N 30°36' E 122°44'0 0.1
2017-May-13 09:28N 30°36' E 122°44'0 0.1
2017-May-13 08:58N 30°36' E 122°44'0 0.0
2017-May-13 08:28N 30°36' E 122°44'0 0.1
2017-May-13 06:46N 30°36' E 122°44'0 0.0
2017-May-13 01:06N 30°36' E 122°44'0 0.9
2017-May-13 01:00N 30°36' E 122°44'3 5.0
2017-May-13 00:28N 30°35' E 122°47'611.4
2017-May-12 23:58N 30°34' E 122°53'1413.4
2017-May-12 22:55N 30°48' E 122°57'614.6
2017-May-12 22:30N 30°54' E 122°57'1311.7
2017-May-12 21:25N 31°05' E 122°48'1615.3
2017-May-12 20:22N 31°05' E 122°30'410.3
2017-May-12 20:00N 31°06' E 122°25'714.1
2017-May-12 19:30N 31°07' E 122°17'715.0
2017-May-12 19:00N 31°11' E 122°10'714.4
2017-May-12 18:31N 31°14' E 122°03'815.1
2017-May-12 18:00N 31°16' E 121°54'714.3
2017-May-12 17:31N 31°18' E 121°46'5 9.7
2017-May-12 17:00N 31°20' E 121°41'1 1.7
2017-May-12 16:28N 31°20' E 121°40'0 0.0
2017-May-12 15:55N 31°20' E 121°40'0 0.0
2017-May-12 15:28N 31°20' E 121°40'0 0.0
2017-May-12 14:58N 31°20' E 121°40'0 0.0
2017-May-12 13:46N 31°20' E 121°40'0 0.0
2017-May-12 13:28N 31°20' E 121°40'0 0.0
2017-May-12 12:58N 31°20' E 121°40'0 0.1
2017-May-12 12:28N 31°20' E 121°40'0 0.1
2017-May-12 11:58N 31°20' E 121°40'0 0.0
2017-May-12 11:19N 31°20' E 121°40'0 0.0
2017-May-12 10:58N 31°20' E 121°40'0 0.0
2017-May-12 10:28N 31°20' E 121°40'0 0.0
2017-May-12 09:58N 31°20' E 121°40'0 0.0
2017-May-12 09:28N 31°20' E 121°40'0 0.0
2017-May-12 08:58N 31°20' E 121°40'0 0.0
2017-May-12 08:25N 31°20' E 121°40'0 0.0
2017-May-12 07:58N 31°20' E 121°40'0 0.0
2017-May-12 07:28N 31°20' E 121°40'0 0.0
2017-May-12 06:52N 31°20' E 121°40'0 0.0
2017-May-12 06:28N 31°20' E 121°40'0 0.0
2017-May-12 06:00N 31°20' E 121°40'0 0.9
2017-May-12 05:30N 31°21' E 121°40'0 0.2
2017-May-12 05:00N 31°20' E 121°40'2 3.8
2017-May-12 04:30N 31°20' E 121°42'4 7.7
2017-May-12 04:00N 31°18' E 121°46'4 8.3
2017-May-12 03:30N 31°17' E 121°50'5 9.3
2017-May-12 03:00N 31°16' E 121°56'5 9.7
2017-May-12 02:30N 31°15' E 122°01'611.9
2017-May-12 02:00N 31°13' E 122°08'611.9
2017-May-12 01:30N 31°09' E 122°13'611.7
2017-May-12 01:00N 31°06' E 122°19'610.8
2017-May-12 00:30N 31°07' E 122°26'4 7.2
2017-May-12 00:00N 31°07' E 122°30'11 9.1
2017-May-11 22:46N 31°07' E 122°43'2 9.3
2017-May-11 22:30N 31°06' E 122°46'6 9.3
2017-May-11 21:52N 31°03' E 122°52'2 1.2
2017-May-11 20:18N 31°02' E 122°53'0 0.2
2017-May-11 19:58N 31°02' E 122°53'0 0.1
2017-May-11 17:54N 31°02' E 122°53'0 0.2
2017-May-11 17:31N 31°02' E 122°52'0 0.2
2017-May-11 16:58N 31°02' E 122°52'0 0.0
2017-May-11 16:27N 31°02' E 122°52'0 0.1
2017-May-11 15:48N 31°02' E 122°52'0 0.0
2017-May-11 15:28N 31°02' E 122°52'0 0.1
2017-May-11 10:30N 31°02' E 122°52'0 0.1
2017-May-11 09:58N 31°02' E 122°52'0 0.0
2017-May-11 09:30N 31°02' E 122°52'0 0.1
2017-May-11 08:52N 31°02' E 122°52'0 0.0
2017-May-11 08:25N 31°02' E 122°52'0 0.1
2017-May-11 07:58N 31°02' E 122°53'0 0.1
2017-May-11 07:16N 31°02' E 122°53'0 0.1
2017-May-11 06:52N 31°02' E 122°53'0 0.1
2017-May-11 06:18N 31°02' E 122°53'0 0.1
2017-May-11 05:52N 31°02' E 122°53'0 0.2
2017-May-11 05:28N 31°02' E 122°53'0 0.2
2017-May-11 04:57N 31°02' E 122°53'0 0.1
2017-May-11 04:31N 31°02' E 122°52'  
Track history (hours):
 
Tides and Currents Weather Stations Pressure Air Temp Water Temp Dewpoint Dewpoint Depression Visibility Wind Speed Wind Dir Waves Ship Positions

APL New Jersey

Last reported at 2017-May-18 16:16 UTC. Time now 2017-May-26 03:42 UTC.
Position N 30°28' E 122°43'.

Length 293 m; draft 10.2 m.

Type: Cargo ship. MMSI: 636013522.

Date/timePositionNaut miles runAvg speedWind from/ knotsBaromVisibWave heightAir tempDewpointWater temp
2017-May-18 16:16N 30°28' E 122°43'3 9.6
2017-May-18 15:58N 30°29' E 122°39'511.0
2017-May-18 15:30N 30°31' E 122°34'610.1
2017-May-18 14:57N 30°32' E 122°28'9 9.9
2017-May-18 14:00N 30°33' E 122°17'511.0
2017-May-18 13:30N 30°34' E 122°10'610.2
2017-May-18 12:56N 30°36' E 122°05'0 0.7
2017-May-18 12:30N 30°37' E 122°05'0 0.0
2017-May-18 11:54N 30°37' E 122°05'0 0.0
2017-May-18 11:18N 30°37' E 122°05'0 0.0
2017-May-18 10:57N 30°37' E 122°05'0 0.0
2017-May-18 10:30N 30°37' E 122°05'0 0.0
2017-May-18 09:54N 30°37' E 122°05'0 0.0
2017-May-18 09:12N 30°37' E 122°05'0 0.0
2017-May-18 09:00N 30°37' E 122°05'0 0.0
2017-May-18 08:27N 30°37' E 122°05'0 0.0
2017-May-18 08:00N 30°37' E 122°05'0 0.0
2017-May-18 07:24N 30°37' E 122°05'0 0.0
2017-May-18 01:18N 30°37' E 122°05'4 4.6
2017-May-18 00:24N 30°35' E 122°09'410.7
2017-May-17 23:59N 30°34' E 122°14'510.0
2017-May-17 23:27N 30°33' E 122°20'2 3.6
2017-May-17 23:00N 30°33' E 122°22'2 4.4
2017-May-17 22:30N 30°32' E 122°24'3 4.9
2017-May-17 21:59N 30°32' E 122°27'4 9.0
2017-May-17 21:30N 30°32' E 122°32'810.3
2017-May-17 20:43N 30°34' E 122°41'3 7.8
2017-May-17 20:20N 30°36' E 122°44'1 0.1
2017-May-17 14:40N 30°36' E 122°44'0 0.1
2017-May-17 13:13N 30°36' E 122°44'0 0.0
2017-May-16 12:40N 30°36' E 122°44'0 0.0
2017-May-16 01:55N 30°36' E 122°44'0 0.0
2017-May-16 01:25N 30°36' E 122°44'0 0.1
2017-May-16 00:58N 30°36' E 122°44'0 0.3
2017-May-16 00:28N 30°36' E 122°44'0 0.1
2017-May-15 23:04N 30°36' E 122°44'0 0.2
2017-May-15 22:43N 30°36' E 122°44'0 0.0
2017-May-15 22:28N 30°36' E 122°44'0 0.0
2017-May-15 21:46N 30°36' E 122°44'0 0.1
2017-May-15 21:28N 30°36' E 122°44'0 0.0
2017-May-15 20:43N 30°36' E 122°44'0 0.1
2017-May-15 20:19N 30°36' E 122°44'0 0.1
2017-May-15 17:22N 30°36' E 122°44'0 0.0
2017-May-15 14:52N 30°36' E 122°44'0 0.0
2017-May-15 13:37N 30°36' E 122°44'0 0.1
2017-May-15 13:28N 30°36' E 122°44'0 0.1
2017-May-15 12:19N 30°36' E 122°44'0 0.2
2017-May-15 11:55N 30°36' E 122°44'0 0.2
2017-May-15 11:28N 30°36' E 122°44'0 0.1
2017-May-15 10:55N 30°36' E 122°44'0 0.0
2017-May-15 10:28N 30°36' E 122°44'0 0.1
2017-May-15 09:34N 30°36' E 122°44'0 0.1
2017-May-15 09:28N 30°36' E 122°44'0 0.0
2017-May-14 11:16N 30°36' E 122°44'0 0.0
2017-May-13 21:37N 30°36' E 122°44'0 0.2
2017-May-13 21:16N 30°36' E 122°44'0 0.0
2017-May-13 20:43N 30°36' E 122°44'0 0.0
2017-May-13 20:22N 30°36' E 122°44'0 0.1
2017-May-13 19:49N 30°36' E 122°44'0 0.1
2017-May-13 18:49N 30°36' E 122°44'0 0.0
2017-May-13 15:25N 30°36' E 122°44'0 0.0
2017-May-13 14:55N 30°36' E 122°44'0 0.1
2017-May-13 14:28N 30°36' E 122°44'0 0.0
2017-May-13 12:31N 30°36' E 122°44'0 0.0
2017-May-13 12:10N 30°36' E 122°44'0 0.1
2017-May-13 11:07N 30°36' E 122°44'0 0.1
2017-May-13 10:58N 30°36' E 122°44'0 0.1
2017-May-13 10:07N 30°36' E 122°44'0 0.4
2017-May-13 09:58N 30°36' E 122°44'0 0.1
2017-May-13 09:28N 30°36' E 122°44'0 0.1
2017-May-13 08:58N 30°36' E 122°44'0 0.0
2017-May-13 08:28N 30°36' E 122°44'0 0.1
2017-May-13 06:46N 30°36' E 122°44'0 0.0
2017-May-13 01:06N 30°36' E 122°44'0 0.9
2017-May-13 01:00N 30°36' E 122°44'3 5.0
2017-May-13 00:28N 30°35' E 122°47'611.4
2017-May-12 23:58N 30°34' E 122°53'1413.4
2017-May-12 22:55N 30°48' E 122°57'614.6
2017-May-12 22:30N 30°54' E 122°57'1311.7
2017-May-12 21:25N 31°05' E 122°48'1615.3
2017-May-12 20:22N 31°05' E 122°30'410.3
2017-May-12 20:00N 31°06' E 122°25'714.1
2017-May-12 19:30N 31°07' E 122°17'715.0
2017-May-12 19:00N 31°11' E 122°10'714.4
2017-May-12 18:31N 31°14' E 122°03'815.1
2017-May-12 18:00N 31°16' E 121°54'714.3
2017-May-12 17:31N 31°18' E 121°46'5 9.7
2017-May-12 17:00N 31°20' E 121°41'1 1.7
2017-May-12 16:28N 31°20' E 121°40'0 0.0
2017-May-12 15:55N 31°20' E 121°40'0 0.0
2017-May-12 15:28N 31°20' E 121°40'0 0.0
2017-May-12 14:58N 31°20' E 121°40'0 0.0
2017-May-12 13:46N 31°20' E 121°40'0 0.0
2017-May-12 13:28N 31°20' E 121°40'0 0.0
2017-May-12 12:58N 31°20' E 121°40'0 0.1
2017-May-12 12:28N 31°20' E 121°40'0 0.1
2017-May-12 11:58N 31°20' E 121°40'0 0.0
2017-May-12 11:19N 31°20' E 121°40'0 0.0
2017-May-12 10:58N 31°20' E 121°40'0 0.0
2017-May-12 10:28N 31°20' E 121°40'0 0.0
2017-May-12 09:58N 31°20' E 121°40'0 0.0
2017-May-12 09:28N 31°20' E 121°40'0 0.0
2017-May-12 08:58N 31°20' E 121°40'0 0.0
2017-May-12 08:25N 31°20' E 121°40'0 0.0
2017-May-12 07:58N 31°20' E 121°40'0 0.0
2017-May-12 07:28N 31°20' E 121°40'0 0.0
2017-May-12 06:52N 31°20' E 121°40'0 0.0
2017-May-12 06:28N 31°20' E 121°40'0 0.0
2017-May-12 06:00N 31°20' E 121°40'0 0.9
2017-May-12 05:30N 31°21' E 121°40'0 0.2
2017-May-12 05:00N 31°20' E 121°40'2 3.8
2017-May-12 04:30N 31°20' E 121°42'4 7.7
2017-May-12 04:00N 31°18' E 121°46'4 8.3
2017-May-12 03:30N 31°17' E 121°50'5 9.3
2017-May-12 03:00N 31°16' E 121°56'5 9.7
2017-May-12 02:30N 31°15' E 122°01'611.9
2017-May-12 02:00N 31°13' E 122°08'611.9
2017-May-12 01:30N 31°09' E 122°13'611.7
2017-May-12 01:00N 31°06' E 122°19'610.8
2017-May-12 00:30N 31°07' E 122°26'4 7.2
2017-May-12 00:00N 31°07' E 122°30'11 9.1
2017-May-11 22:46N 31°07' E 122°43'2 9.3
2017-May-11 22:30N 31°06' E 122°46'6 9.3
2017-May-11 21:52N 31°03' E 122°52'2 1.2
2017-May-11 20:18N 31°02' E 122°53'0 0.2
2017-May-11 19:58N 31°02' E 122°53'0 0.1
2017-May-11 17:54N 31°02' E 122°53'0 0.2
2017-May-11 17:31N 31°02' E 122°52'0 0.2
2017-May-11 16:58N 31°02' E 122°52'0 0.0
2017-May-11 16:27N 31°02' E 122°52'0 0.1
2017-May-11 15:48N 31°02' E 122°52'0 0.0
2017-May-11 15:28N 31°02' E 122°52'0 0.1
2017-May-11 10:30N 31°02' E 122°52'0 0.1
2017-May-11 09:58N 31°02' E 122°52'0 0.0
2017-May-11 09:30N 31°02' E 122°52'0 0.1
2017-May-11 08:52N 31°02' E 122°52'0 0.0
2017-May-11 08:25N 31°02' E 122°52'0 0.1
2017-May-11 07:58N 31°02' E 122°53'0 0.1
2017-May-11 07:16N 31°02' E 122°53'0 0.1
2017-May-11 06:52N 31°02' E 122°53'0 0.1
2017-May-11 06:18N 31°02' E 122°53'0 0.1
2017-May-11 05:52N 31°02' E 122°53'0 0.2
2017-May-11 05:28N 31°02' E 122°53'0 0.2
2017-May-11 04:57N 31°02' E 122°53'0 0.1
2017-May-11 04:31N 31°02' E 122°52'  

Dump ship's entire track history